sensor_id;sensor_type;location;lat;lon;timestamp;pressure;altitude;pressure_sealevel;temperature;humidity
11041;BME280;5573;49.592;8.662;2023-05-23T00:01:12;99735.53;;;14.21;95.33
11041;BME280;5573;49.592;8.662;2023-05-23T00:03:42;99734.59;;;14.15;95.75
11041;BME280;5573;49.592;8.662;2023-05-23T00:06:11;99733.44;;;14.11;95.59
11041;BME280;5573;49.592;8.662;2023-05-23T00:08:41;99737.63;;;14.07;95.34
11041;BME280;5573;49.592;8.662;2023-05-23T00:11:09;99739.28;;;14.08;95.55
11041;BME280;5573;49.592;8.662;2023-05-23T00:13:39;99737.88;;;14.05;95.73
11041;BME280;5573;49.592;8.662;2023-05-23T00:16:07;99731.59;;;14.00;95.54
11041;BME280;5573;49.592;8.662;2023-05-23T00:18:36;99742.78;;;13.97;95.33
11041;BME280;5573;49.592;8.662;2023-05-23T00:21:06;99737.69;;;13.95;95.40
11041;BME280;5573;49.592;8.662;2023-05-23T00:23:35;99740.59;;;13.94;95.68
11041;BME280;5573;49.592;8.662;2023-05-23T00:26:05;99733.72;;;13.98;95.71
11041;BME280;5573;49.592;8.662;2023-05-23T00:28:33;99738.47;;;13.96;95.49
11041;BME280;5573;49.592;8.662;2023-05-23T00:31:01;99731.16;;;13.91;95.67
11041;BME280;5573;49.592;8.662;2023-05-23T00:33:29;99732.69;;;13.87;95.55
11041;BME280;5573;49.592;8.662;2023-05-23T00:35:59;99728.34;;;13.86;95.70
11041;BME280;5573;49.592;8.662;2023-05-23T00:38:27;99726.38;;;13.82;95.50
11041;BME280;5573;49.592;8.662;2023-05-23T00:40:55;99729.06;;;13.82;95.78
11041;BME280;5573;49.592;8.662;2023-05-23T00:43:25;99727.88;;;13.78;95.56
11041;BME280;5573;49.592;8.662;2023-05-23T00:45:53;99729.06;;;13.82;95.58
11041;BME280;5573;49.592;8.662;2023-05-23T00:48:21;99740.84;;;13.81;95.37
11041;BME280;5573;49.592;8.662;2023-05-23T00:50:50;99739.19;;;13.80;95.63
11041;BME280;5573;49.592;8.662;2023-05-23T00:53:18;99738.38;;;13.91;95.60
11041;BME280;5573;49.592;8.662;2023-05-23T00:55:46;99727.66;;;13.91;95.78
11041;BME280;5573;49.592;8.662;2023-05-23T00:58:15;99729.53;;;13.90;95.82
11041;BME280;5573;49.592;8.662;2023-05-23T01:00:44;99735.78;;;13.96;95.59
11041;BME280;5573;49.592;8.662;2023-05-23T01:03:13;99734.06;;;13.90;95.68
11041;BME280;5573;49.592;8.662;2023-05-23T01:05:44;99737.91;;;13.94;95.66
11041;BME280;5573;49.592;8.662;2023-05-23T01:08:12;99739.88;;;13.87;95.75
11041;BME280;5573;49.592;8.662;2023-05-23T01:10:41;99738.03;;;13.76;95.88
11041;BME280;5573;49.592;8.662;2023-05-23T01:13:19;99741.41;;;13.83;95.76
11041;BME280;5573;49.592;8.662;2023-05-23T01:15:54;99749.56;;;13.88;95.68
11041;BME280;5573;49.592;8.662;2023-05-23T01:18:33;99739.41;;;13.78;95.73
11041;BME280;5573;49.592;8.662;2023-05-23T01:21:05;99743.72;;;13.79;95.78
11041;BME280;5573;49.592;8.662;2023-05-23T01:23:57;99737.34;;;13.69;95.67
11041;BME280;5573;49.592;8.662;2023-05-23T01:26:40;99743.50;;;13.69;95.57
11041;BME280;5573;49.592;8.662;2023-05-23T01:29:20;99742.22;;;13.72;95.87
11041;BME280;5573;49.592;8.662;2023-05-23T01:31:52;99748.13;;;13.74;95.91
11041;BME280;5573;49.592;8.662;2023-05-23T01:34:21;99749.22;;;13.73;95.79
11041;BME280;5573;49.592;8.662;2023-05-23T01:36:53;99734.66;;;13.69;95.53
11041;BME280;5573;49.592;8.662;2023-05-23T01:39:22;99748.38;;;13.72;95.75
11041;BME280;5573;49.592;8.662;2023-05-23T01:41:51;99754.31;;;13.63;95.94
11041;BME280;5573;49.592;8.662;2023-05-23T01:44:21;99763.84;;;13.58;95.84
11041;BME280;5573;49.592;8.662;2023-05-23T01:46:49;99769.56;;;13.62;95.90
11041;BME280;5573;49.592;8.662;2023-05-23T01:49:19;99761.28;;;13.64;95.73
11041;BME280;5573;49.592;8.662;2023-05-23T01:51:51;99764.44;;;13.60;95.90
11041;BME280;5573;49.592;8.662;2023-05-23T01:54:20;99761.63;;;13.55;96.03
11041;BME280;5573;49.592;8.662;2023-05-23T01:56:49;99772.34;;;13.55;95.89
11041;BME280;5573;49.592;8.662;2023-05-23T01:59:17;99767.91;;;13.49;95.83
11041;BME280;5573;49.592;8.662;2023-05-23T02:01:47;99765.72;;;13.46;95.92
11041;BME280;5573;49.592;8.662;2023-05-23T02:04:15;99766.97;;;13.44;95.82
11041;BME280;5573;49.592;8.662;2023-05-23T02:06:43;99766.97;;;13.44;95.83
11041;BME280;5573;49.592;8.662;2023-05-23T02:09:12;99765.56;;;13.41;95.75
11041;BME280;5573;49.592;8.662;2023-05-23T02:11:40;99776.31;;;13.53;95.76
11041;BME280;5573;49.592;8.662;2023-05-23T02:14:08;99771.88;;;13.58;95.78
11041;BME280;5573;49.592;8.662;2023-05-23T02:16:36;99782.59;;;13.70;95.76
11041;BME280;5573;49.592;8.662;2023-05-23T02:19:06;99767.22;;;13.77;96.11
11041;BME280;5573;49.592;8.662;2023-05-23T02:21:34;99770.16;;;13.76;95.77
11041;BME280;5573;49.592;8.662;2023-05-23T02:24:02;99768.41;;;13.81;95.92
11041;BME280;5573;49.592;8.662;2023-05-23T02:26:31;99777.03;;;13.83;95.84
11041;BME280;5573;49.592;8.662;2023-05-23T02:28:58;99782.72;;;13.87;95.88
11041;BME280;5573;49.592;8.662;2023-05-23T02:31:26;99777.38;;;13.87;95.68
11041;BME280;5573;49.592;8.662;2023-05-23T02:33:54;99779.38;;;13.91;96.05
11041;BME280;5573;49.592;8.662;2023-05-23T02:36:24;99783.66;;;13.92;96.02
11041;BME280;5573;49.592;8.662;2023-05-23T02:38:53;99787.97;;;13.93;96.08
11041;BME280;5573;49.592;8.662;2023-05-23T02:41:22;99794.00;;;13.89;96.02
11041;BME280;5573;49.592;8.662;2023-05-23T02:43:51;99794.81;;;13.89;95.65
11041;BME280;5573;49.592;8.662;2023-05-23T02:46:19;99800.78;;;13.91;95.86
11041;BME280;5573;49.592;8.662;2023-05-23T02:48:47;99806.03;;;13.98;96.13
11041;BME280;5573;49.592;8.662;2023-05-23T02:51:15;99806.25;;;14.08;96.15
11041;BME280;5573;49.592;8.662;2023-05-23T02:53:44;99808.56;;;14.16;95.69
11041;BME280;5573;49.592;8.662;2023-05-23T02:56:14;99803.91;;;14.23;95.65
11041;BME280;5573;49.592;8.662;2023-05-23T02:58:42;99814.16;;;14.26;96.02
11041;BME280;5573;49.592;8.662;2023-05-23T03:01:10;99813.22;;;14.32;95.85
11041;BME280;5573;49.592;8.662;2023-05-23T03:03:38;99814.41;;;14.36;95.71
11041;BME280;5573;49.592;8.662;2023-05-23T03:06:07;99816.03;;;14.37;96.08
11041;BME280;5573;49.592;8.662;2023-05-23T03:08:40;99821.72;;;14.41;95.81
11041;BME280;5573;49.592;8.662;2023-05-23T03:11:10;99825.34;;;14.46;95.91
11041;BME280;5573;49.592;8.662;2023-05-23T03:13:38;99825.47;;;14.51;95.87
11041;BME280;5573;49.592;8.662;2023-05-23T03:16:06;99820.69;;;14.53;95.94
11041;BME280;5573;49.592;8.662;2023-05-23T03:18:34;99815.88;;;14.55;95.78
11041;BME280;5573;49.592;8.662;2023-05-23T03:21:02;99820.19;;;14.56;96.22
11041;BME280;5573;49.592;8.662;2023-05-23T03:23:30;99819.63;;;14.54;95.70
11041;BME280;5573;49.592;8.662;2023-05-23T03:25:58;99825.56;;;14.56;95.55
11041;BME280;5573;49.592;8.662;2023-05-23T03:28:27;99825.81;;;14.55;96.13
11041;BME280;5573;49.592;8.662;2023-05-23T03:30:55;99828.50;;;14.55;96.20
11041;BME280;5573;49.592;8.662;2023-05-23T03:33:23;99830.34;;;14.54;96.04
11041;BME280;5573;49.592;8.662;2023-05-23T03:35:51;99834.66;;;14.55;95.91
11041;BME280;5573;49.592;8.662;2023-05-23T03:38:19;99830.91;;;14.56;95.73
11041;BME280;5573;49.592;8.662;2023-05-23T03:40:47;99825.00;;;14.54;96.23
11041;BME280;5573;49.592;8.662;2023-05-23T03:43:15;99820.91;;;14.52;96.20
11041;BME280;5573;49.592;8.662;2023-05-23T03:45:44;99829.75;;;14.52;96.18
11041;BME280;5573;49.592;8.662;2023-05-23T03:48:15;99828.59;;;14.48;95.73
11041;BME280;5573;49.592;8.662;2023-05-23T03:50:43;99838.06;;;14.51;95.99
11041;BME280;5573;49.592;8.662;2023-05-23T03:53:11;99837.25;;;14.50;96.02
11041;BME280;5573;49.592;8.662;2023-05-23T03:55:39;99838.75;;;14.46;95.82
11041;BME280;5573;49.592;8.662;2023-05-23T03:58:07;99831.63;;;14.40;96.16
11041;BME280;5573;49.592;8.662;2023-05-23T04:00:35;99838.28;;;14.38;96.01
11041;BME280;5573;49.592;8.662;2023-05-23T04:03:07;99843.31;;;14.34;96.19
11041;BME280;5573;49.592;8.662;2023-05-23T04:05:38;99834.31;;;14.29;96.14
11041;BME280;5573;49.592;8.662;2023-05-23T04:08:08;99841.75;;;14.27;96.05
11041;BME280;5573;49.592;8.662;2023-05-23T04:10:36;99833.38;;;14.23;95.73
11041;BME280;5573;49.592;8.662;2023-05-23T04:13:03;99831.28;;;14.25;95.80
11041;BME280;5573;49.592;8.662;2023-05-23T04:15:32;99841.75;;;14.27;95.75
11041;BME280;5573;49.592;8.662;2023-05-23T04:18:07;99843.28;;;14.23;96.04
11041;BME280;5573;49.592;8.662;2023-05-23T04:20:36;99849.31;;;14.18;95.65
11041;BME280;5573;49.592;8.662;2023-05-23T04:23:04;99854.47;;;14.20;95.69
11041;BME280;5573;49.592;8.662;2023-05-23T04:25:35;99860.16;;;14.23;95.94
11041;BME280;5573;49.592;8.662;2023-05-23T04:28:09;99863.31;;;14.20;95.49
11041;BME280;5573;49.592;8.662;2023-05-23T04:30:37;99864.97;;;14.21;95.63
11041;BME280;5573;49.592;8.662;2023-05-23T04:33:07;99861.47;;;14.21;95.94
11041;BME280;5573;49.592;8.662;2023-05-23T04:35:36;99865.41;;;14.18;95.82
11041;BME280;5573;49.592;8.662;2023-05-23T04:38:06;99870.19;;;14.16;95.86
11041;BME280;5573;49.592;8.662;2023-05-23T04:40:35;99870.75;;;14.18;95.44
11041;BME280;5573;49.592;8.662;2023-05-23T04:43:14;99876.13;;;14.18;95.69
11041;BME280;5573;49.592;8.662;2023-05-23T04:45:52;99876.13;;;14.18;95.31
11041;BME280;5573;49.592;8.662;2023-05-23T04:48:39;99875.41;;;14.11;95.57
11041;BME280;5573;49.592;8.662;2023-05-23T04:51:08;99879.03;;;14.05;95.13
11041;BME280;5573;49.592;8.662;2023-05-23T04:53:46;99886.25;;;14.04;95.61
11041;BME280;5573;49.592;8.662;2023-05-23T04:56:15;99894.06;;;14.06;95.14
11041;BME280;5573;49.592;8.662;2023-05-23T04:58:47;99888.47;;;14.07;95.18
11041;BME280;5573;49.592;8.662;2023-05-23T05:01:15;99898.50;;;14.12;95.35
11041;BME280;5573;49.592;8.662;2023-05-23T05:03:45;99899.19;;;14.19;95.39
11041;BME280;5573;49.592;8.662;2023-05-23T05:06:13;99908.28;;;14.30;95.62
11041;BME280;5573;49.592;8.662;2023-05-23T05:08:42;99904.34;;;14.32;95.31
11041;BME280;5573;49.592;8.662;2023-05-23T05:11:10;99904.25;;;14.39;95.18
11041;BME280;5573;49.592;8.662;2023-05-23T05:13:39;99908.19;;;14.48;95.40
11041;BME280;5573;49.592;8.662;2023-05-23T05:16:07;99908.78;;;14.62;94.95
11041;BME280;5573;49.592;8.662;2023-05-23T05:18:36;99917.03;;;14.72;94.97
11041;BME280;5573;49.592;8.662;2023-05-23T05:21:05;99919.59;;;14.78;95.14
11041;BME280;5573;49.592;8.662;2023-05-23T05:23:35;99917.72;;;14.90;94.55
11041;BME280;5573;49.592;8.662;2023-05-23T05:26:05;99926.78;;;15.01;95.32
11041;BME280;5573;49.592;8.662;2023-05-23T05:28:33;99926.09;;;15.05;94.86
11041;BME280;5573;49.592;8.662;2023-05-23T05:31:01;99923.97;;;15.07;94.96
11041;BME280;5573;49.592;8.662;2023-05-23T05:33:33;99931.09;;;15.14;94.12
11041;BME280;5573;49.592;8.662;2023-05-23T05:36:09;99911.69;;;15.23;92.67
11041;BME280;5573;49.592;8.662;2023-05-23T05:38:38;99937.78;;;15.39;92.03
11041;BME280;5573;49.592;8.662;2023-05-23T05:41:06;99938.25;;;15.36;92.25
11041;BME280;5573;49.592;8.662;2023-05-23T05:43:38;99933.91;;;15.47;91.58
11041;BME280;5573;49.592;8.662;2023-05-23T05:46:07;99944.84;;;15.45;90.71
11041;BME280;5573;49.592;8.662;2023-05-23T05:48:35;99944.19;;;15.50;90.31
11041;BME280;5573;49.592;8.662;2023-05-23T05:51:06;99943.81;;;15.46;88.64
11041;BME280;5573;49.592;8.662;2023-05-23T05:53:35;99953.84;;;15.63;89.26
11041;BME280;5573;49.592;8.662;2023-05-23T05:56:04;99954.22;;;15.55;87.95
11041;BME280;5573;49.592;8.662;2023-05-23T05:58:35;99956.50;;;15.63;85.63
11041;BME280;5573;49.592;8.662;2023-05-23T06:01:07;99958.44;;;15.39;87.18
11041;BME280;5573;49.592;8.662;2023-05-23T06:03:35;99963.78;;;15.39;88.22
11041;BME280;5573;49.592;8.662;2023-05-23T06:06:04;99957.78;;;15.20;87.19
11041;BME280;5573;49.592;8.662;2023-05-23T06:08:32;99958.38;;;15.22;86.87
11041;BME280;5573;49.592;8.662;2023-05-23T06:11:01;99967.34;;;15.16;88.18
11041;BME280;5573;49.592;8.662;2023-05-23T06:13:29;99964.19;;;15.19;87.51
11041;BME280;5573;49.592;8.662;2023-05-23T06:15:57;99968.03;;;15.23;88.94
11041;BME280;5573;49.592;8.662;2023-05-23T06:18:25;99964.09;;;15.14;86.56
11041;BME280;5573;49.592;8.662;2023-05-23T06:20:52;99969.63;;;14.96;87.74
11041;BME280;5573;49.592;8.662;2023-05-23T06:23:21;99985.13;;;14.82;87.43
11041;BME280;5573;49.592;8.662;2023-05-23T06:25:49;99984.19;;;14.88;88.50
11041;BME280;5573;49.592;8.662;2023-05-23T06:28:18;99984.75;;;15.02;86.91
11041;BME280;5573;49.592;8.662;2023-05-23T06:30:46;99985.44;;;15.09;88.00
11041;BME280;5573;49.592;8.662;2023-05-23T06:33:14;99980.88;;;15.21;86.90
11041;BME280;5573;49.592;8.662;2023-05-23T06:35:42;99982.91;;;15.54;86.03
11041;BME280;5573;49.592;8.662;2023-05-23T06:38:10;99995.63;;;15.87;81.92
11041;BME280;5573;49.592;8.662;2023-05-23T06:40:38;99994.69;;;15.93;84.76
11041;BME280;5573;49.592;8.662;2023-05-23T06:43:08;99985.47;;;15.89;84.67
11041;BME280;5573;49.592;8.662;2023-05-23T06:45:44;99998.41;;;15.92;81.78
11041;BME280;5573;49.592;8.662;2023-05-23T06:48:13;100003.06;;;15.96;83.53
11041;BME280;5573;49.592;8.662;2023-05-23T06:50:42;99995.41;;;15.88;80.89
11041;BME280;5573;49.592;8.662;2023-05-23T06:53:11;100010.22;;;15.91;81.83
11041;BME280;5573;49.592;8.662;2023-05-23T06:55:40;100013.34;;;16.16;81.07
11041;BME280;5573;49.592;8.662;2023-05-23T06:58:11;100010.25;;;16.08;81.10
11041;BME280;5573;49.592;8.662;2023-05-23T07:00:40;100008.78;;;16.17;79.79
11041;BME280;5573;49.592;8.662;2023-05-23T07:03:26;100015.03;;;15.89;80.19
11041;BME280;5573;49.592;8.662;2023-05-23T07:05:58;100024.63;;;15.85;82.15
11041;BME280;5573;49.592;8.662;2023-05-23T07:08:26;100019.28;;;15.73;79.56
11041;BME280;5573;49.592;8.662;2023-05-23T07:10:59;100021.41;;;15.60;81.78
11041;BME280;5573;49.592;8.662;2023-05-23T07:13:33;100020.63;;;15.47;82.09
11041;BME280;5573;49.592;8.662;2023-05-23T07:16:01;100023.31;;;15.59;83.42
11041;BME280;5573;49.592;8.662;2023-05-23T07:18:32;100027.56;;;15.72;83.75
11041;BME280;5573;49.592;8.662;2023-05-23T07:21:04;100033.44;;;15.69;83.16
11041;BME280;5573;49.592;8.662;2023-05-23T07:23:32;100034.88;;;15.88;82.95
11041;BME280;5573;49.592;8.662;2023-05-23T07:26:00;100034.06;;;16.32;80.50
11041;BME280;5573;49.592;8.662;2023-05-23T07:28:47;100029.34;;;16.39;80.02
11041;BME280;5573;49.592;8.662;2023-05-23T07:31:15;100036.25;;;16.64;78.37
11041;BME280;5573;49.592;8.662;2023-05-23T07:33:45;100033.03;;;16.50;78.11
11041;BME280;5573;49.592;8.662;2023-05-23T07:36:19;100042.06;;;16.44;79.75
11041;BME280;5573;49.592;8.662;2023-05-23T07:38:49;100041.41;;;16.54;80.11
11041;BME280;5573;49.592;8.662;2023-05-23T07:41:18;100041.34;;;16.48;81.92
11041;BME280;5573;49.592;8.662;2023-05-23T07:43:46;100038.28;;;16.73;77.84
11041;BME280;5573;49.592;8.662;2023-05-23T07:46:15;100048.28;;;16.44;79.43
11041;BME280;5573;49.592;8.662;2023-05-23T07:48:44;100047.47;;;16.16;80.33
11041;BME280;5573;49.592;8.662;2023-05-23T07:51:12;100045.75;;;16.10;78.16
11041;BME280;5573;49.592;8.662;2023-05-23T07:53:40;100044.88;;;16.21;79.90
11041;BME280;5573;49.592;8.662;2023-05-23T07:56:10;100047.78;;;16.02;80.20
11041;BME280;5573;49.592;8.662;2023-05-23T07:58:40;100046.66;;;15.87;78.53
11041;BME280;5573;49.592;8.662;2023-05-23T08:01:08;100048.16;;;15.94;80.44
11041;BME280;5573;49.592;8.662;2023-05-23T08:03:56;100042.91;;;16.16;82.35
11041;BME280;5573;49.592;8.662;2023-05-23T08:06:30;100040.84;;;16.35;77.17
11041;BME280;5573;49.592;8.662;2023-05-23T08:09:04;100043.72;;;16.45;78.12
11041;BME280;5573;49.592;8.662;2023-05-23T08:11:35;100045.81;;;16.43;79.20
11041;BME280;5573;49.592;8.662;2023-05-23T08:14:04;100051.03;;;16.49;78.65
11041;BME280;5573;49.592;8.662;2023-05-23T08:16:35;100056.72;;;16.53;77.37
11041;BME280;5573;49.592;8.662;2023-05-23T08:19:10;100052.94;;;16.82;76.83
11041;BME280;5573;49.592;8.662;2023-05-23T08:21:38;100060.38;;;16.92;70.75
11041;BME280;5573;49.592;8.662;2023-05-23T08:24:07;100056.88;;;16.75;73.73
11041;BME280;5573;49.592;8.662;2023-05-23T08:26:36;100058.72;;;16.91;74.60
11041;BME280;5573;49.592;8.662;2023-05-23T08:29:08;100050.16;;;16.94;77.26
11041;BME280;5573;49.592;8.662;2023-05-23T08:31:36;100059.78;;;16.90;73.42
11041;BME280;5573;49.592;8.662;2023-05-23T08:34:05;100058.41;;;16.87;73.42
11041;BME280;5573;49.592;8.662;2023-05-23T08:36:37;100048.31;;;17.16;74.33
11041;BME280;5573;49.592;8.662;2023-05-23T08:39:08;99989.28;;;16.71;74.24
11041;BME280;5573;49.592;8.662;2023-05-23T08:41:46;100051.22;;;17.31;72.88
11041;BME280;5573;49.592;8.662;2023-05-23T08:44:14;100046.22;;;17.57;74.33
11041;BME280;5573;49.592;8.662;2023-05-23T08:46:51;100042.53;;;18.11;70.08
11041;BME280;5573;49.592;8.662;2023-05-23T08:49:37;100051.22;;;18.50;69.71
11041;BME280;5573;49.592;8.662;2023-05-23T08:52:10;100054.19;;;18.75;66.06
11041;BME280;5573;49.592;8.662;2023-05-23T08:54:42;100050.38;;;19.08;64.72
11041;BME280;5573;49.592;8.662;2023-05-23T08:57:13;100014.75;;;19.11;65.41
11041;BME280;5573;49.592;8.662;2023-05-23T08:59:47;100057.00;;;18.91;67.21
11041;BME280;5573;49.592;8.662;2023-05-23T09:02:16;100058.72;;;18.70;68.01
11041;BME280;5573;49.592;8.662;2023-05-23T09:04:46;100065.16;;;18.64;67.78
11041;BME280;5573;49.592;8.662;2023-05-23T09:07:21;100058.69;;;18.65;66.99
11041;BME280;5573;49.592;8.662;2023-05-23T09:09:51;100064.06;;;18.65;67.61
11041;BME280;5573;49.592;8.662;2023-05-23T09:12:19;100067.13;;;18.47;69.63
11041;BME280;5573;49.592;8.662;2023-05-23T09:14:49;100060.22;;;18.56;68.90
11041;BME280;5573;49.592;8.662;2023-05-23T09:17:19;100062.72;;;18.94;63.96
11041;BME280;5573;49.592;8.662;2023-05-23T09:19:49;100062.72;;;18.94;65.59
11041;BME280;5573;49.592;8.662;2023-05-23T09:22:38;100056.16;;;18.85;65.16
11041;BME280;5573;49.592;8.662;2023-05-23T09:25:12;100065.22;;;18.42;67.55
11041;BME280;5573;49.592;8.662;2023-05-23T09:27:42;100060.00;;;18.35;66.27
11041;BME280;5573;49.592;8.662;2023-05-23T09:30:16;100064.19;;;18.48;66.28
11041;BME280;5573;49.592;8.662;2023-05-23T09:32:57;100040.88;;;18.37;68.85
11041;BME280;5573;49.592;8.662;2023-05-23T09:35:31;100065.72;;;19.03;66.42
11041;BME280;5573;49.592;8.662;2023-05-23T09:38:00;100066.94;;;18.85;66.00
11041;BME280;5573;49.592;8.662;2023-05-23T09:40:30;100055.34;;;18.53;67.33
11041;BME280;5573;49.592;8.662;2023-05-23T09:43:02;100067.81;;;18.59;67.01
11041;BME280;5573;49.592;8.662;2023-05-23T09:45:31;100061.19;;;18.76;64.94
11041;BME280;5573;49.592;8.662;2023-05-23T09:48:00;100071.44;;;19.11;65.97
11041;BME280;5573;49.592;8.662;2023-05-23T09:50:31;100070.75;;;19.78;64.80
11041;BME280;5573;49.592;8.662;2023-05-23T09:53:02;100066.06;;;20.30;64.15
11041;BME280;5573;49.592;8.662;2023-05-23T09:55:30;100076.63;;;20.52;62.21
11041;BME280;5573;49.592;8.662;2023-05-23T09:57:58;100072.00;;;20.38;60.17
11041;BME280;5573;49.592;8.662;2023-05-23T10:00:27;100075.84;;;19.64;60.55
11041;BME280;5573;49.592;8.662;2023-05-23T10:03:04;100056.69;;;19.24;60.76
11041;BME280;5573;49.592;8.662;2023-05-23T10:05:37;100076.75;;;18.96;63.71
11041;BME280;5573;49.592;8.662;2023-05-23T10:08:10;100083.44;;;18.88;64.00
11041;BME280;5573;49.592;8.662;2023-05-23T10:13:52;100085.13;;;19.00;64.80
11041;BME280;5573;49.592;8.662;2023-05-23T10:16:26;100079.41;;;19.28;63.66
11041;BME280;5573;49.592;8.662;2023-05-23T10:18:57;100081.44;;;19.58;64.48
11041;BME280;5573;49.592;8.662;2023-05-23T10:21:29;100083.16;;;19.69;63.51
11041;BME280;5573;49.592;8.662;2023-05-23T10:24:03;100079.63;;;19.73;63.40
11041;BME280;5573;49.592;8.662;2023-05-23T10:26:31;100084.47;;;19.66;62.51
11041;BME280;5573;49.592;8.662;2023-05-23T10:29:00;100084.03;;;19.37;64.23
11041;BME280;5573;49.592;8.662;2023-05-23T10:31:28;100089.88;;;19.24;65.58
11041;BME280;5573;49.592;8.662;2023-05-23T10:34:01;100083.88;;;19.12;65.52
11041;BME280;5573;49.592;8.662;2023-05-23T10:36:34;100088.34;;;19.33;64.50
11041;BME280;5573;49.592;8.662;2023-05-23T10:39:11;100083.38;;;19.57;63.19
11041;BME280;5573;49.592;8.662;2023-05-23T10:41:47;100087.19;;;19.66;64.99
11041;BME280;5573;49.592;8.662;2023-05-23T10:44:22;100082.63;;;19.77;62.20
11041;BME280;5573;49.592;8.662;2023-05-23T10:46:52;100025.97;;;18.93;63.42
11041;BME280;5573;49.592;8.662;2023-05-23T10:49:20;100089.50;;;19.06;65.16
11041;BME280;5573;49.592;8.662;2023-05-23T10:51:49;100070.47;;;18.85;64.84
11041;BME280;5573;49.592;8.662;2023-05-23T10:54:19;100077.75;;;18.53;67.11
11041;BME280;5573;49.592;8.662;2023-05-23T10:56:47;100091.25;;;18.53;66.33
11041;BME280;5573;49.592;8.662;2023-05-23T10:59:29;100090.03;;;18.71;65.41
11041;BME280;5573;49.592;8.662;2023-05-23T11:01:59;100087.47;;;18.86;63.63
11041;BME280;5573;49.592;8.662;2023-05-23T11:04:28;100088.34;;;18.97;64.23
11041;BME280;5573;49.592;8.662;2023-05-23T11:06:56;100093.00;;;19.06;65.06
11041;BME280;5573;49.592;8.662;2023-05-23T11:09:25;100093.69;;;19.23;61.62
11041;BME280;5573;49.592;8.662;2023-05-23T11:11:54;100101.25;;;19.26;63.49
11041;BME280;5573;49.592;8.662;2023-05-23T11:14:31;100095.69;;;19.01;62.43
11041;BME280;5573;49.592;8.662;2023-05-23T11:17:00;100094.44;;;19.19;63.60
11041;BME280;5573;49.592;8.662;2023-05-23T11:19:28;100088.34;;;19.33;58.74
11041;BME280;5573;49.592;8.662;2023-05-23T11:21:58;100094.19;;;19.57;61.97
11041;BME280;5573;49.592;8.662;2023-05-23T11:24:50;100099.22;;;19.44;63.87
11041;BME280;5573;49.592;8.662;2023-05-23T11:27:25;100097.16;;;19.61;60.89
11041;BME280;5573;49.592;8.662;2023-05-23T11:29:57;100090.09;;;19.55;62.50
11041;BME280;5573;49.592;8.662;2023-05-23T11:32:27;100102.28;;;20.29;59.00
11041;BME280;5573;49.592;8.662;2023-05-23T11:34:58;100097.47;;;20.77;57.97
11041;BME280;5573;49.592;8.662;2023-05-23T11:37:26;100098.56;;;20.96;56.71
11041;BME280;5573;49.592;8.662;2023-05-23T11:39:55;100098.84;;;21.15;55.21
11041;BME280;5573;49.592;8.662;2023-05-23T11:42:23;100091.81;;;20.78;58.89
11041;BME280;5573;49.592;8.662;2023-05-23T11:44:51;100091.50;;;20.55;57.89
11041;BME280;5573;49.592;8.662;2023-05-23T11:47:19;100082.31;;;20.36;56.65
11041;BME280;5573;49.592;8.662;2023-05-23T11:49:47;100085.63;;;19.80;60.06
11041;BME280;5573;49.592;8.662;2023-05-23T11:52:15;100079.84;;;19.15;61.95
11041;BME280;5573;49.592;8.662;2023-05-23T11:54:43;100099.16;;;18.97;62.24
11041;BME280;5573;49.592;8.662;2023-05-23T11:57:12;100096.38;;;18.86;61.34
11041;BME280;5573;49.592;8.662;2023-05-23T11:59:40;100092.28;;;18.79;62.80
11041;BME280;5573;49.592;8.662;2023-05-23T12:02:08;100096.97;;;18.94;60.57
11041;BME280;5573;49.592;8.662;2023-05-23T12:04:36;100089.59;;;19.21;62.06
11041;BME280;5573;49.592;8.662;2023-05-23T12:07:04;100089.88;;;19.24;60.96
11041;BME280;5573;49.592;8.662;2023-05-23T12:09:41;100090.59;;;19.47;60.54
11041;BME280;5573;49.592;8.662;2023-05-23T12:12:09;100086.94;;;19.73;60.06
11041;BME280;5573;49.592;8.662;2023-05-23T12:14:38;100092.34;;;19.68;61.22
11041;BME280;5573;49.592;8.662;2023-05-23T12:17:11;100088.59;;;19.84;59.59
11041;BME280;5573;49.592;8.662;2023-05-23T12:19:44;100093.91;;;19.54;60.18
11041;BME280;5573;49.592;8.662;2023-05-23T12:22:12;100088.03;;;19.72;58.69
11041;BME280;5573;49.592;8.662;2023-05-23T12:24:44;100089.31;;;19.59;60.87
11041;BME280;5573;49.592;8.662;2023-05-23T12:27:12;100082.91;;;19.75;61.26
11041;BME280;5573;49.592;8.662;2023-05-23T12:29:49;100094.34;;;19.98;60.63
11041;BME280;5573;49.592;8.662;2023-05-23T12:32:17;100091.91;;;19.91;61.72
11041;BME280;5573;49.592;8.662;2023-05-23T12:34:45;100092.41;;;19.88;61.51
11041;BME280;5573;49.592;8.662;2023-05-23T12:37:15;100093.03;;;20.05;57.60
11041;BME280;5573;49.592;8.662;2023-05-23T12:39:46;100099.34;;;20.51;60.49
11041;BME280;5573;49.592;8.662;2023-05-23T12:42:13;100091.25;;;21.32;57.60
11041;BME280;5573;49.592;8.662;2023-05-23T12:44:43;100095.31;;;21.19;57.86
11041;BME280;5573;49.592;8.662;2023-05-23T12:47:11;100100.19;;;20.77;59.74
11041;BME280;5573;49.592;8.662;2023-05-23T12:49:39;100098.53;;;20.41;60.61
11041;BME280;5573;49.592;8.662;2023-05-23T12:52:07;100096.94;;;20.50;60.75
11041;BME280;5573;49.592;8.662;2023-05-23T12:54:35;100090.44;;;20.51;60.83
11041;BME280;5573;49.592;8.662;2023-05-23T12:57:02;100091.53;;;20.60;58.63
11041;BME280;5573;49.592;8.662;2023-05-23T12:59:30;100088.91;;;19.93;60.30
11041;BME280;5573;49.592;8.662;2023-05-23T13:01:59;100078.19;;;19.46;61.99
11041;BME280;5573;49.592;8.662;2023-05-23T13:04:28;100026.13;;;19.18;63.63
11041;BME280;5573;49.592;8.662;2023-05-23T13:06:58;100073.22;;;19.37;63.35
11041;BME280;5573;49.592;8.662;2023-05-23T13:09:25;100080.38;;;19.59;62.03
11041;BME280;5573;49.592;8.662;2023-05-23T13:11:53;100081.88;;;19.87;62.41
11041;BME280;5573;49.592;8.662;2023-05-23T13:14:21;100073.00;;;20.01;61.48
11041;BME280;5573;49.592;8.662;2023-05-23T13:16:49;100065.97;;;20.10;60.81
11041;BME280;5573;49.592;8.662;2023-05-23T13:19:18;100084.19;;;20.30;59.08
11041;BME280;5573;49.592;8.662;2023-05-23T13:21:47;100077.97;;;20.35;59.41
11041;BME280;5573;49.592;8.662;2023-05-23T13:24:15;100080.72;;;20.65;59.38